createdAt,value
2023-06-14T00:03:57.322Z,11.00
2023-06-14T00:08:42.707Z,10.90
2023-06-14T00:13:28.817Z,10.80
2023-06-14T00:18:17.680Z,11.00
2023-06-14T00:23:08.137Z,10.90
2023-06-14T00:27:54.901Z,10.80
2023-06-14T00:32:45.345Z,10.70
2023-06-14T00:37:34.906Z,10.60
2023-06-14T00:42:26.649Z,10.60
2023-06-14T00:47:11.970Z,10.40
2023-06-14T00:52:00.271Z,10.40
2023-06-14T00:56:47.972Z,10.30
2023-06-14T01:01:34.969Z,10.10
2023-06-14T01:06:58.190Z,10.10
2023-06-14T01:12:04.283Z,10.10
2023-06-14T01:17:02.772Z,9.90
2023-06-14T01:22:06.360Z,9.90
2023-06-14T01:26:57.811Z,10.00
2023-06-14T01:31:42.634Z,10.00
2023-06-14T01:36:30.532Z,10.00
2023-06-14T01:41:16.543Z,9.90
2023-06-14T01:46:08.774Z,9.60
2023-06-14T01:50:54.614Z,9.50
2023-06-14T01:55:44.541Z,9.40
2023-06-14T02:00:30.119Z,9.20
2023-06-14T02:05:20.405Z,9.10
2023-06-14T02:10:08.367Z,9.00
2023-06-14T02:14:55.497Z,8.90
2023-06-14T02:19:43.481Z,8.70
2023-06-14T02:24:32.746Z,8.70
2023-06-14T02:29:19.279Z,8.60
2023-06-14T02:34:10.228Z,8.60
2023-06-14T02:38:55.340Z,8.60
2023-06-14T02:43:45.934Z,8.50
2023-06-14T02:48:31.084Z,8.50
2023-06-14T02:53:18.877Z,8.50
2023-06-14T02:58:05.354Z,8.50
2023-06-14T03:02:55.557Z,8.60
2023-06-14T03:07:42.464Z,8.70
2023-06-14T03:12:30.447Z,8.70
2023-06-14T03:17:20.656Z,8.70
2023-06-14T03:22:08.646Z,8.70
2023-06-14T03:26:54.196Z,8.70
2023-06-14T03:31:59.964Z,8.80
2023-06-14T03:36:51.011Z,8.90
2023-06-14T03:41:37.041Z,9.00
2023-06-14T03:46:24.223Z,9.20
2023-06-14T03:51:12.188Z,9.40
2023-06-14T03:56:01.409Z,9.70
2023-06-14T04:01:08.170Z,10.50
2023-06-14T04:05:52.478Z,11.60
2023-06-14T04:10:39.828Z,12.20
2023-06-14T04:15:29.223Z,12.30
2023-06-14T04:20:15.486Z,12.10
2023-06-14T04:25:07.961Z,12.00
2023-06-14T04:30:05.168Z,12.00
2023-06-14T04:34:56.079Z,12.20
2023-06-14T04:39:43.329Z,12.40
2023-06-14T04:44:33.109Z,12.50
2023-06-14T04:54:55.833Z,12.90
2023-06-14T04:59:45.199Z,13.30
2023-06-14T05:04:31.804Z,13.60
2023-06-14T05:09:17.775Z,13.90
2023-06-14T05:14:07.208Z,14.00
2023-06-14T05:18:55.262Z,14.30
2023-06-14T05:24:03.772Z,14.50
2023-06-14T05:28:47.677Z,14.60
2023-06-14T05:33:37.635Z,14.50
2023-06-14T05:38:24.800Z,14.60
2023-06-14T05:43:13.155Z,14.60
2023-06-14T05:48:47.745Z,14.90
2023-06-14T05:53:53.630Z,15.20
2023-06-14T05:58:40.188Z,15.80
2023-06-14T06:03:30.621Z,16.00
2023-06-14T06:14:05.216Z,16.00
2023-06-14T06:19:26.701Z,16.20
2023-06-14T06:24:13.379Z,16.70
2023-06-14T06:29:02.971Z,17.10
2023-06-14T06:33:50.279Z,17.20
2023-06-14T06:38:42.857Z,17.10
2023-06-14T06:43:28.155Z,17.30
2023-06-14T06:48:20.289Z,17.60
2023-06-14T06:53:04.660Z,17.70
2023-06-14T06:58:41.709Z,18.10
2023-06-14T07:03:28.320Z,18.70
2023-06-14T07:08:20.983Z,19.10
2023-06-14T07:13:50.268Z,19.30
2023-06-14T07:19:00.389Z,19.40
2023-06-14T07:23:44.461Z,19.50
2023-06-14T07:28:31.384Z,19.90
2023-06-14T07:33:24.714Z,20.40
2023-06-14T07:38:56.093Z,20.80
2023-06-14T07:43:59.572Z,21.40
2023-06-14T07:49:08.834Z,21.00
2023-06-14T07:54:05.309Z,21.20
2023-06-14T07:58:55.108Z,21.40
2023-06-14T08:03:43.986Z,21.70
2023-06-14T08:08:35.385Z,21.90
2023-06-14T08:13:54.085Z,22.30
2023-06-14T08:19:42.691Z,22.60
2023-06-14T08:24:30.609Z,22.90
2023-06-14T08:29:21.038Z,23.10
2023-06-14T08:34:09.994Z,23.50
2023-06-14T08:38:55.554Z,23.60
2023-06-14T08:43:41.208Z,23.60
2023-06-14T08:48:33.240Z,23.40
2023-06-14T08:53:21.851Z,23.10
2023-06-14T08:58:10.587Z,23.30
2023-06-14T09:03:07.368Z,23.10
2023-06-14T09:08:27.970Z,23.70
2023-06-14T09:13:19.713Z,23.30
2023-06-14T09:18:09.275Z,23.70
2023-06-14T09:22:56.971Z,23.20
2023-06-14T09:27:43.142Z,23.70
2023-06-14T09:32:46.217Z,24.00
2023-06-14T09:37:36.822Z,24.50
2023-06-14T09:42:40.176Z,24.50
2023-06-14T09:47:27.631Z,24.40
2023-06-14T09:52:50.116Z,24.80
2023-06-14T09:57:37.087Z,25.30
2023-06-14T10:02:34.996Z,25.50
2023-06-14T10:07:40.638Z,25.60
2023-06-14T10:13:00.350Z,25.90
2023-06-14T10:17:56.671Z,25.10
2023-06-14T10:23:11.222Z,25.20
2023-06-14T10:28:20.006Z,25.10
2023-06-14T10:33:09.124Z,24.70
2023-06-14T10:38:12.105Z,23.60
2023-06-14T10:42:55.887Z,23.60
2023-06-14T10:47:43.688Z,24.40
2023-06-14T10:52:31.369Z,24.70
2023-06-14T10:57:18.290Z,25.00
2023-06-14T11:02:56.564Z,25.30
2023-06-14T11:08:20.852Z,25.30
2023-06-14T11:13:48.515Z,24.50
2023-06-14T11:18:39.610Z,24.60
2023-06-14T11:23:26.234Z,24.90
2023-06-14T11:28:48.496Z,24.00
2023-06-14T11:34:22.781Z,23.10
2023-06-14T11:39:31.521Z,22.50
2023-06-14T11:44:19.125Z,22.50
2023-06-14T11:49:08.684Z,22.00
2023-06-14T11:53:55.796Z,21.50
2023-06-14T11:58:39.895Z,20.90
2023-06-14T12:03:31.053Z,20.30
2023-06-14T12:08:18.740Z,20.10
2023-06-14T12:13:02.324Z,20.30
2023-06-14T12:17:50.342Z,20.70
2023-06-14T12:22:54.585Z,21.10
2023-06-14T12:28:13.492Z,21.90
2023-06-14T12:33:08.824Z,23.00
2023-06-14T12:38:06.388Z,24.20
2023-06-14T12:42:56.333Z,24.70
2023-06-14T12:47:44.272Z,24.60
2023-06-14T12:52:31.708Z,24.00
2023-06-14T12:57:56.557Z,23.40
2023-06-14T13:02:55.518Z,23.00
2023-06-14T13:07:43.973Z,22.50
2023-06-14T13:12:35.992Z,23.10
2023-06-14T13:17:23.675Z,23.20
2023-06-14T13:22:10.528Z,24.00
2023-06-14T13:27:12.017Z,24.20
2023-06-14T13:31:59.799Z,24.60
2023-06-14T13:42:04.773Z,25.40
2023-06-14T13:46:54.521Z,24.30
2023-06-14T13:51:48.812Z,23.00
2023-06-14T13:56:32.767Z,22.10
2023-06-14T14:01:51.153Z,22.00
2023-06-14T14:17:05.220Z,24.00
2023-06-14T14:21:49.432Z,23.50
2023-06-14T14:26:40.037Z,23.00
2023-06-14T14:31:25.890Z,22.80
2023-06-14T14:36:15.225Z,22.90
2023-06-14T14:41:49.858Z,23.40
2023-06-14T14:47:28.185Z,24.10
2023-06-14T14:52:23.441Z,24.40
2023-06-14T14:57:18.685Z,25.10
2023-06-14T15:02:08.409Z,25.50
2023-06-14T15:07:12.550Z,25.70
2023-06-14T15:12:48.793Z,25.00
2023-06-14T15:18:39.379Z,25.20
2023-06-14T15:29:06.098Z,26.00
2023-06-14T15:33:53.605Z,26.40
2023-06-14T15:39:11.894Z,25.80
2023-06-14T15:43:59.822Z,24.50
2023-06-14T15:49:15.255Z,23.70
2023-06-14T15:54:11.004Z,23.30
2023-06-14T15:58:57.579Z,23.30
2023-06-14T16:09:08.225Z,22.70
2023-06-14T16:14:28.082Z,23.10
2023-06-14T16:19:14.598Z,23.10
2023-06-14T16:24:03.537Z,22.80
2023-06-14T16:39:30.275Z,22.90
2023-06-14T17:01:31.207Z,22.90
2023-06-14T17:30:11.624Z,21.40
2023-06-14T17:52:31.778Z,20.30
2023-06-14T18:02:43.973Z,19.30
2023-06-14T18:09:02.348Z,18.90
2023-06-14T18:26:27.643Z,18.50
2023-06-14T18:31:11.712Z,18.20
2023-06-14T18:54:27.448Z,17.10
2023-06-14T18:59:14.296Z,16.80
2023-06-14T19:04:16.366Z,16.60
2023-06-14T19:14:09.323Z,16.50
2023-06-14T19:18:56.662Z,16.30
2023-06-14T19:29:39.038Z,16.20
2023-06-14T19:34:24.186Z,16.00
2023-06-14T19:39:11.344Z,15.90
2023-06-14T19:43:59.644Z,15.70
2023-06-14T19:48:47.925Z,15.70
2023-06-14T19:53:36.134Z,15.50
2023-06-14T19:58:23.659Z,15.20
2023-06-14T20:03:11.941Z,14.90
2023-06-14T20:08:01.748Z,14.60
2023-06-14T20:12:47.417Z,14.30
2023-06-14T20:17:36.500Z,14.10
2023-06-14T20:27:45.394Z,13.70
2023-06-14T20:32:32.839Z,13.70
2023-06-14T20:37:17.911Z,13.50
2023-06-14T20:42:20.951Z,13.30
2023-06-14T20:47:43.259Z,13.20
2023-06-14T20:52:31.092Z,12.90
2023-06-14T20:57:19.145Z,12.90
2023-06-14T21:02:20.043Z,12.80
2023-06-14T21:07:15.222Z,12.70
2023-06-14T21:11:59.864Z,12.70
2023-06-14T21:16:51.996Z,12.70
2023-06-14T21:21:36.578Z,12.60
2023-06-14T21:26:28.217Z,12.50
2023-06-14T21:31:13.085Z,12.30
2023-06-14T21:36:00.270Z,12.20
2023-06-14T21:40:48.581Z,12.20
2023-06-14T21:45:37.349Z,12.10
2023-06-14T21:50:26.308Z,12.00
2023-06-14T21:55:10.486Z,11.80
2023-06-14T21:59:59.658Z,11.80
2023-06-14T22:05:18.377Z,11.80
2023-06-14T22:10:25.220Z,11.70
2023-06-14T22:15:14.057Z,11.70
2023-06-14T22:19:57.861Z,11.60
2023-06-14T22:24:47.389Z,11.60
2023-06-14T22:29:36.043Z,11.60
2023-06-14T22:34:23.269Z,11.80
2023-06-14T22:39:13.080Z,11.70
2023-06-14T22:44:00.089Z,11.60
2023-06-14T22:48:52.008Z,11.60
2023-06-14T22:53:36.268Z,11.50
2023-06-14T22:58:26.118Z,11.60
2023-06-14T23:03:09.955Z,11.90
2023-06-14T23:07:58.645Z,12.00
2023-06-14T23:12:49.715Z,11.90
2023-06-14T23:17:34.177Z,11.90
2023-06-14T23:22:23.189Z,11.90
2023-06-14T23:27:10.310Z,11.90
2023-06-14T23:32:03.545Z,11.90
2023-06-14T23:36:48.509Z,12.00
2023-06-14T23:41:34.945Z,12.00
2023-06-14T23:46:24.990Z,12.10
2023-06-14T23:51:12.186Z,12.20
2023-06-14T23:55:59.534Z,12.20
